createdAt,value
2018-06-28T00:00:13.390Z,34.90
2018-06-28T00:02:52.125Z,34.57
2018-06-28T00:05:33.966Z,34.69
2018-06-28T00:08:13.232Z,34.97
2018-06-28T00:10:46.339Z,34.85
2018-06-28T00:13:22.000Z,34.94
2018-06-28T00:15:57.089Z,34.80
2018-06-28T00:18:30.010Z,35.20
2018-06-28T00:21:04.058Z,34.36
2018-06-28T00:23:39.890Z,34.95
2018-06-28T00:26:13.982Z,35.07
2018-06-28T00:28:46.633Z,35.10
2018-06-28T00:31:21.674Z,35.06
2018-06-28T00:33:56.597Z,35.14
2018-06-28T00:36:31.059Z,35.52
2018-06-28T00:39:05.957Z,35.54
2018-06-28T00:41:38.832Z,35.41
2018-06-28T00:44:12.697Z,35.36
2018-06-28T00:46:47.355Z,35.40
2018-06-28T00:49:27.667Z,35.50
2018-06-28T00:52:01.517Z,35.01
2018-06-28T00:54:39.038Z,34.76
2018-06-28T00:57:13.988Z,35.13
2018-06-28T00:59:46.348Z,35.15
2018-06-28T01:02:18.531Z,34.74
2018-06-28T01:04:51.767Z,35.48
2018-06-28T01:07:24.927Z,35.40
2018-06-28T01:09:57.528Z,35.17
2018-06-28T01:12:30.930Z,35.69
2018-06-28T01:15:06.190Z,35.63
2018-06-28T01:17:37.963Z,35.55
2018-06-28T01:20:09.509Z,35.50
2018-06-28T01:22:41.390Z,35.75
2018-06-28T01:25:13.968Z,35.56
2018-06-28T01:27:45.285Z,35.46
2018-06-28T01:30:16.787Z,35.35
2018-06-28T01:32:49.306Z,35.54
2018-06-28T01:35:22.195Z,35.47
2018-06-28T01:38:07.659Z,35.87
2018-06-28T01:40:39.481Z,34.93
2018-06-28T01:43:37.535Z,35.61
2018-06-28T01:46:08.964Z,35.74
2018-06-28T01:48:40.919Z,35.18
2018-06-28T01:51:13.317Z,35.22
2018-06-28T01:53:45.047Z,35.43
2018-06-28T01:56:16.723Z,35.45
2018-06-28T01:58:48.119Z,35.03
2018-06-28T02:01:20.416Z,35.66
2018-06-28T02:03:51.921Z,35.16
2018-06-28T02:06:23.201Z,35.54
2018-06-28T02:08:54.945Z,35.30
2018-06-28T02:11:26.833Z,36.06
2018-06-28T02:13:57.980Z,35.92
2018-06-28T02:16:29.777Z,36.03
2018-06-28T02:19:01.244Z,35.31
2018-06-28T02:21:32.947Z,35.23
2018-06-28T02:24:05.682Z,35.43
2018-06-28T02:26:37.936Z,36.15
2018-06-28T02:29:10.331Z,36.10
2018-06-28T02:31:41.697Z,35.84
2018-06-28T02:34:13.917Z,35.73
2018-06-28T02:36:45.779Z,36.03
2018-06-28T02:39:17.133Z,35.85
2018-06-28T02:41:48.460Z,35.72
2018-06-28T02:44:20.275Z,36.08
2018-06-28T02:46:51.993Z,35.69
2018-06-28T02:49:24.028Z,36.08
2018-06-28T02:51:55.751Z,35.68
2018-06-28T02:54:27.136Z,35.53
2018-06-28T02:56:58.562Z,35.75
2018-06-28T02:59:30.256Z,35.23
2018-06-28T03:02:01.906Z,35.62
2018-06-28T03:04:33.358Z,36.44
2018-06-28T03:07:08.242Z,36.45
2018-06-28T03:09:39.840Z,35.47
2018-06-28T03:12:11.754Z,35.85
2018-06-28T03:14:42.306Z,35.64
2018-06-28T03:17:14.136Z,36.78
2018-06-28T03:19:45.539Z,36.33
2018-06-28T03:22:17.484Z,36.21
2018-06-28T03:24:48.891Z,37.35
2018-06-28T03:27:20.657Z,36.53
2018-06-28T03:29:52.009Z,36.29
2018-06-28T03:32:23.350Z,36.85
2018-06-28T03:34:55.396Z,36.89
2018-06-28T03:37:26.847Z,36.54
2018-06-28T03:39:58.571Z,37.00
2018-06-28T03:42:30.023Z,36.42
2018-06-28T03:45:01.376Z,37.40
2018-06-28T03:47:35.242Z,36.29
2018-06-28T03:50:06.691Z,37.26
2018-06-28T03:52:38.070Z,36.93
2018-06-28T03:55:09.379Z,37.61
2018-06-28T03:57:40.868Z,37.73
2018-06-28T04:00:14.676Z,37.50
2018-06-28T04:06:31.889Z,36.17
2018-06-28T04:09:06.421Z,36.46
2018-06-28T04:11:38.709Z,35.86
2018-06-28T04:14:10.987Z,35.54
2018-06-28T04:16:42.520Z,35.27
2018-06-28T04:19:14.995Z,33.84
2018-06-28T04:21:47.000Z,33.39
2018-06-28T04:24:21.114Z,32.41
2018-06-28T04:26:52.744Z,32.27
2018-06-28T04:29:24.117Z,31.69
2018-06-28T04:31:57.773Z,31.48
2018-06-28T04:34:30.642Z,30.72
2018-06-28T04:37:03.253Z,30.93
2018-06-28T04:39:40.080Z,30.85
2018-06-28T04:42:17.364Z,29.74
2018-06-28T04:44:51.709Z,30.20
2018-06-28T04:47:23.406Z,29.06
2018-06-28T04:50:01.538Z,29.12
2018-06-28T04:52:33.587Z,28.95
2018-06-28T04:55:05.143Z,28.56
2018-06-28T04:57:37.046Z,28.38
2018-06-28T05:00:08.631Z,27.96
2018-06-28T05:02:41.060Z,27.66
2018-06-28T05:05:12.927Z,27.47
2018-06-28T05:07:44.766Z,26.85
2018-06-28T05:10:16.908Z,27.16
2018-06-28T05:12:49.401Z,26.51
2018-06-28T05:15:20.764Z,26.87
2018-06-28T05:17:52.109Z,27.07
2018-06-28T05:20:24.646Z,26.65
2018-06-28T05:22:56.788Z,26.44
2018-06-28T05:25:29.027Z,26.44
2018-06-28T05:28:01.121Z,26.82
2018-06-28T05:30:33.067Z,27.28
2018-06-28T05:33:05.802Z,27.08
2018-06-28T05:35:37.211Z,26.48
2018-06-28T05:38:09.313Z,27.45
2018-06-28T05:40:40.774Z,27.72
2018-06-28T05:43:12.659Z,27.01
2018-06-28T05:45:47.222Z,26.72
2018-06-28T05:48:20.486Z,26.36
2018-06-28T05:51:23.397Z,26.28
2018-06-28T05:53:54.758Z,26.04
2018-06-28T05:56:33.667Z,25.66
2018-06-28T05:59:07.253Z,25.63
2018-06-28T06:01:39.380Z,26.26
2018-06-28T06:04:11.712Z,25.91
2018-06-28T06:06:47.779Z,26.07
2018-06-28T06:09:31.970Z,25.93
2018-06-28T06:15:42.318Z,26.07
2018-06-28T06:18:14.818Z,26.05
2018-06-28T06:20:47.289Z,26.78
2018-06-28T06:23:19.875Z,25.75
2018-06-28T06:25:57.062Z,25.25
2018-06-28T06:28:32.621Z,24.90
2018-06-28T06:31:08.317Z,25.08
2018-06-28T06:33:42.487Z,24.69
2018-06-28T06:36:17.755Z,25.47
2018-06-28T06:38:49.609Z,25.36
2018-06-28T06:41:21.278Z,25.04
2018-06-28T06:43:56.054Z,25.27
2018-06-28T06:46:30.290Z,24.12
2018-06-28T06:51:56.305Z,23.76
2018-06-28T06:54:33.035Z,24.14
2018-06-28T06:57:08.607Z,24.14
2018-06-28T06:59:44.680Z,24.88
2018-06-28T07:02:18.335Z,24.95
2018-06-28T07:04:58.840Z,24.13
2018-06-28T07:07:35.208Z,24.15
2018-06-28T07:10:14.634Z,24.11
2018-06-28T07:12:47.838Z,23.79
2018-06-28T07:15:24.988Z,23.14
2018-06-28T07:17:59.063Z,23.60
2018-06-28T07:20:33.262Z,23.64
2018-06-28T07:23:14.631Z,23.66
2018-06-28T07:25:48.980Z,23.42
2018-06-28T07:31:05.394Z,23.17
2018-06-28T07:33:39.326Z,22.94
2018-06-28T07:36:11.511Z,23.54
2018-06-28T07:38:44.840Z,23.53
2018-06-28T07:41:21.789Z,23.66
2018-06-28T07:46:39.515Z,24.23
2018-06-28T07:49:14.711Z,23.55
2018-06-28T07:51:54.587Z,22.93
2018-06-28T07:54:27.626Z,22.74
2018-06-28T07:57:03.520Z,22.67
2018-06-28T07:59:42.550Z,22.17
2018-06-28T08:02:17.730Z,22.36
2018-06-28T08:04:57.839Z,21.96
2018-06-28T08:07:35.021Z,21.99
2018-06-28T08:10:08.616Z,22.05
2018-06-28T08:12:40.466Z,21.91
2018-06-28T08:15:15.134Z,22.05
2018-06-28T08:17:49.802Z,21.77
2018-06-28T08:20:29.643Z,21.97
2018-06-28T08:23:02.982Z,22.36
2018-06-28T08:25:36.668Z,21.41
2018-06-28T08:28:17.118Z,21.62
2018-06-28T08:30:52.510Z,22.10
2018-06-28T08:33:28.055Z,21.67
2018-06-28T08:36:02.903Z,21.77
2018-06-28T08:38:35.914Z,22.15
2018-06-28T08:41:20.329Z,22.93
2018-06-28T08:44:02.176Z,22.94
2018-06-28T08:46:35.400Z,23.46
2018-06-28T08:49:22.843Z,23.66
2018-06-28T08:51:59.219Z,23.12
2018-06-28T08:54:38.612Z,22.63
2018-06-28T08:57:17.380Z,22.99
2018-06-28T08:59:53.559Z,22.97
2018-06-28T09:02:27.726Z,22.32
2018-06-28T09:05:07.473Z,23.21
2018-06-28T09:07:43.575Z,22.99
2018-06-28T09:10:16.465Z,22.93
2018-06-28T09:12:51.057Z,22.82
2018-06-28T09:15:23.843Z,23.38
2018-06-28T09:18:19.372Z,22.84
2018-06-28T09:21:04.790Z,22.87
2018-06-28T09:23:47.113Z,23.29
2018-06-28T09:26:23.632Z,23.01
2018-06-28T09:28:58.625Z,22.62
2018-06-28T09:37:58.189Z,23.52
2018-06-28T09:40:44.419Z,22.70
2018-06-28T09:43:27.718Z,22.93
2018-06-28T09:48:53.978Z,22.20
2018-06-28T09:51:31.374Z,21.91
2018-06-28T09:54:09.250Z,21.95
2018-06-28T10:08:10.805Z,22.08
2018-06-28T10:13:43.855Z,22.93
2018-06-28T10:16:37.652Z,22.83
2018-06-28T10:19:22.038Z,22.77
2018-06-28T10:22:07.425Z,22.54
2018-06-28T10:27:53.467Z,23.59
2018-06-28T10:33:53.583Z,23.38
2018-06-28T10:36:39.840Z,22.89
2018-06-28T10:45:41.271Z,22.79
2018-06-28T10:48:28.424Z,22.13
2018-06-28T10:51:15.046Z,22.81
2018-06-28T10:54:00.908Z,22.32
2018-06-28T10:56:40.123Z,21.39
2018-06-28T11:02:14.363Z,21.67
2018-06-28T11:05:02.840Z,21.52
2018-06-28T13:18:44.497Z,19.23
2018-06-28T13:21:17.063Z,18.91
2018-06-28T13:23:59.254Z,18.36
2018-06-28T13:29:05.355Z,18.44
2018-06-28T13:31:37.569Z,17.83
2018-06-28T13:34:09.645Z,17.49
2018-06-28T13:36:42.934Z,18.10
2018-06-28T13:39:16.825Z,18.60
2018-06-28T13:41:49.594Z,17.96
2018-06-28T13:44:25.416Z,17.97
2018-06-28T13:46:59.769Z,18.42
2018-06-28T13:49:34.216Z,18.78
2018-06-28T13:52:19.138Z,18.82
2018-06-28T13:54:55.876Z,18.27
2018-06-28T14:00:14.784Z,17.73
2018-06-28T14:02:48.669Z,18.37
2018-06-28T14:05:24.538Z,17.96
2018-06-28T14:08:02.743Z,17.54
2018-06-28T14:10:38.615Z,17.45
2018-06-28T14:13:12.693Z,17.30
2018-06-28T14:16:16.307Z,17.96
2018-06-28T14:18:54.755Z,18.34
2018-06-28T14:21:29.041Z,18.75
2018-06-28T14:24:02.776Z,19.01
2018-06-28T14:26:36.222Z,19.35
2018-06-28T14:29:12.085Z,19.98
2018-06-28T14:31:49.135Z,19.42
2018-06-28T14:34:22.430Z,19.97
2018-06-28T14:36:54.924Z,20.59
2018-06-28T14:39:28.440Z,20.76
2018-06-28T14:42:02.448Z,20.59
2018-06-28T14:44:35.347Z,20.90
2018-06-28T14:47:07.020Z,21.12
2018-06-28T14:49:43.241Z,21.70
2018-06-28T14:52:16.253Z,21.11
2018-06-28T14:54:47.936Z,22.42
2018-06-28T14:57:23.230Z,21.95
2018-06-28T15:00:00.838Z,22.12
2018-06-28T15:02:41.179Z,23.12
2018-06-28T15:05:15.373Z,22.35
2018-06-28T15:07:52.568Z,22.80
2018-06-28T15:10:26.677Z,22.70
2018-06-28T15:12:59.389Z,22.05
2018-06-28T15:15:36.527Z,21.92
2018-06-28T15:18:09.662Z,21.83
2018-06-28T15:20:41.267Z,21.93
2018-06-28T15:23:16.579Z,21.70
2018-06-28T15:25:48.720Z,21.48
2018-06-28T15:28:21.536Z,22.14
2018-06-28T15:30:54.100Z,21.97
2018-06-28T15:33:26.561Z,21.30
2018-06-28T15:36:20.215Z,21.17
2018-06-28T15:38:54.063Z,21.19
2018-06-28T15:41:25.568Z,21.04
2018-06-28T15:44:06.829Z,20.66
2018-06-28T15:46:38.939Z,21.01
2018-06-28T15:49:13.997Z,20.63
2018-06-28T15:51:49.309Z,20.85
2018-06-28T15:54:23.405Z,20.69
2018-06-28T15:56:59.793Z,20.86
2018-06-28T15:59:47.624Z,19.78
2018-06-28T16:02:35.392Z,20.15
2018-06-28T16:05:10.172Z,20.40
2018-06-28T16:07:48.966Z,21.18
2018-06-28T16:10:22.181Z,21.50
2018-06-28T16:12:57.053Z,21.18
2018-06-28T16:15:30.417Z,22.16
2018-06-28T16:18:06.093Z,21.94
2018-06-28T16:20:39.937Z,22.60
2018-06-28T16:23:25.697Z,22.69
2018-06-28T16:25:59.988Z,22.50
2018-06-28T16:28:32.456Z,22.50
2018-06-28T16:31:06.875Z,22.91
2018-06-28T16:33:42.442Z,22.29
2018-06-28T16:36:14.913Z,22.90
2018-06-28T16:38:48.529Z,22.77
2018-06-28T16:41:22.085Z,22.03
2018-06-28T16:43:57.862Z,20.83
2018-06-28T16:46:34.423Z,21.29
2018-06-28T16:49:08.540Z,21.17
2018-06-28T16:51:43.107Z,21.10
2018-06-28T16:54:18.024Z,20.28
2018-06-28T16:59:41.558Z,20.23
2018-06-28T17:02:15.461Z,20.06
2018-06-28T17:04:48.921Z,19.95
2018-06-28T17:07:23.486Z,20.50
2018-06-28T17:09:58.602Z,20.97
2018-06-28T17:12:32.960Z,20.53
2018-06-28T17:15:09.465Z,21.42
2018-06-28T17:17:42.443Z,21.22
2018-06-28T17:20:16.282Z,21.59
2018-06-28T17:22:53.750Z,20.73
2018-06-28T17:25:25.556Z,21.54
2018-06-28T17:28:01.845Z,21.35
2018-06-28T17:30:34.452Z,21.22
2018-06-28T17:33:11.142Z,22.14
2018-06-28T17:35:43.096Z,21.91
2018-06-28T17:38:21.719Z,22.81
2018-06-28T17:41:00.350Z,22.95
2018-06-28T17:43:54.341Z,23.25
2018-06-28T17:46:32.050Z,23.68
2018-06-28T17:52:01.750Z,24.03
2018-06-28T17:54:50.996Z,24.13
2018-06-28T17:57:25.424Z,24.54
2018-06-28T18:00:00.081Z,24.93
2018-06-28T18:02:33.329Z,24.15
2018-06-28T18:05:11.726Z,24.95
2018-06-28T18:07:44.685Z,24.37
2018-06-28T18:10:28.260Z,24.90
2018-06-28T18:13:04.084Z,24.55
2018-06-28T18:15:39.846Z,25.26
2018-06-28T18:18:13.031Z,24.85
2018-06-28T18:20:47.598Z,24.41
2018-06-28T18:23:22.371Z,24.51
2018-06-28T18:25:56.260Z,24.93
2018-06-28T18:28:31.605Z,24.80
2018-06-28T18:31:04.198Z,25.29
2018-06-28T18:33:37.988Z,25.00
2018-06-28T18:36:12.213Z,25.51
2018-06-28T18:38:47.097Z,25.72
2018-06-28T18:41:20.097Z,25.67
2018-06-28T18:43:55.481Z,25.34
2018-06-28T18:46:28.157Z,25.11
2018-06-28T18:49:09.058Z,25.72
2018-06-28T18:51:43.281Z,25.69
2018-06-28T18:54:18.987Z,25.51
2018-06-28T18:56:57.470Z,26.26
2018-06-28T18:59:30.542Z,26.17
2018-06-28T19:02:09.293Z,25.85
2018-06-28T19:04:49.270Z,26.28
2018-06-28T19:07:23.416Z,26.64
2018-06-28T19:10:02.463Z,26.46
2018-06-28T19:12:37.270Z,26.65
2018-06-28T19:15:18.697Z,27.13
2018-06-28T19:17:52.798Z,26.79
2018-06-28T19:20:29.220Z,26.67
2018-06-28T19:23:06.567Z,26.72
2018-06-28T19:25:38.497Z,26.51
2018-06-28T19:28:10.780Z,26.59
2018-06-28T19:30:51.129Z,27.23
2018-06-28T19:33:24.201Z,26.50
2018-06-28T19:35:59.477Z,27.35
2018-06-28T19:38:37.571Z,27.34
2018-06-28T19:41:16.650Z,27.62
2018-06-28T19:43:56.831Z,27.71
2018-06-28T19:49:15.209Z,26.96
2018-06-28T19:51:52.822Z,27.36
2018-06-28T19:54:27.450Z,27.20
2018-06-28T19:57:00.740Z,27.17
2018-06-28T19:59:36.234Z,27.39
2018-06-28T20:02:12.783Z,27.33
2018-06-28T20:04:47.746Z,28.18
2018-06-28T20:07:19.295Z,27.54
2018-06-28T20:09:53.566Z,28.10
2018-06-28T20:12:36.882Z,27.85
2018-06-28T20:15:17.922Z,28.31
2018-06-28T20:18:05.728Z,28.18
2018-06-28T20:20:38.648Z,28.23
2018-06-28T20:23:12.752Z,28.36
2018-06-28T20:25:47.868Z,28.65
2018-06-28T20:28:29.024Z,28.13
2018-06-28T20:31:06.418Z,28.85
2018-06-28T20:33:55.008Z,28.40
2018-06-28T20:36:33.965Z,29.15
2018-06-28T20:39:11.162Z,28.72
2018-06-28T20:41:52.653Z,29.47
2018-06-28T20:44:34.460Z,29.16
2018-06-28T20:47:07.806Z,28.67
2018-06-28T20:49:45.221Z,29.06
2018-06-28T20:52:21.864Z,28.98
2018-06-28T20:54:55.266Z,29.04
2018-06-28T20:57:28.977Z,29.33
2018-06-28T21:00:05.400Z,29.16
2018-06-28T21:02:43.827Z,28.93
2018-06-28T21:05:18.280Z,29.50
2018-06-28T21:07:50.394Z,29.21
2018-06-28T21:10:22.298Z,29.26
2018-06-28T21:12:56.411Z,29.33
2018-06-28T21:15:31.621Z,29.37
2018-06-28T21:18:12.577Z,28.98
2018-06-28T21:20:46.658Z,29.84
2018-06-28T21:23:23.150Z,30.18
2018-06-28T21:25:58.711Z,29.80
2018-06-28T21:28:32.262Z,30.21
2018-06-28T21:31:09.805Z,29.86
2018-06-28T21:36:25.395Z,29.95
2018-06-28T21:38:59.194Z,30.42
2018-06-28T21:41:41.020Z,30.65
2018-06-28T21:44:12.417Z,30.48
2018-06-28T21:46:47.992Z,29.89
2018-06-28T21:49:20.458Z,30.71
2018-06-28T21:51:53.196Z,30.21
2018-06-28T21:54:31.058Z,30.18
2018-06-28T21:57:07.597Z,30.50
2018-06-28T21:59:44.008Z,30.23
2018-06-28T22:02:17.972Z,30.69
2018-06-28T22:05:00.262Z,29.95
2018-06-28T22:07:31.576Z,29.47
2018-06-28T22:10:05.522Z,29.81
2018-06-28T22:12:40.610Z,29.51
2018-06-28T22:15:17.091Z,30.02
2018-06-28T22:17:51.050Z,30.02
2018-06-28T22:20:25.452Z,29.99
2018-06-28T22:22:58.272Z,29.98
2018-06-28T22:25:31.168Z,29.76
2018-06-28T22:28:08.500Z,29.52
2018-06-28T22:30:40.785Z,29.45
2018-06-28T22:33:14.214Z,30.11
2018-06-28T22:35:48.134Z,30.13
2018-06-28T22:38:21.395Z,30.76
2018-06-28T22:41:10.688Z,30.63
2018-06-28T22:46:24.241Z,31.00
2018-06-28T22:49:05.276Z,31.03
2018-06-28T22:51:43.438Z,31.70
2018-06-28T22:54:17.763Z,31.16
2018-06-28T22:56:49.526Z,31.08
2018-06-28T22:59:21.732Z,30.48
2018-06-28T23:01:53.895Z,30.87
2018-06-28T23:04:26.603Z,30.50
2018-06-28T23:06:59.612Z,30.21
2018-06-28T23:09:32.805Z,30.26
2018-06-28T23:12:05.829Z,30.46
2018-06-28T23:14:38.820Z,30.93
2018-06-28T23:17:11.877Z,31.12
2018-06-28T23:19:47.330Z,31.11
2018-06-28T23:23:01.486Z,30.84
2018-06-28T23:25:40.035Z,30.62
2018-06-28T23:28:16.923Z,31.00
2018-06-28T23:30:50.879Z,30.66
2018-06-28T23:33:24.602Z,31.07
2018-06-28T23:35:57.125Z,31.18
2018-06-28T23:38:31.091Z,31.08
2018-06-28T23:41:08.924Z,31.35
2018-06-28T23:43:43.732Z,31.91
2018-06-28T23:46:16.004Z,32.40
2018-06-28T23:48:51.230Z,32.87
2018-06-28T23:51:23.574Z,32.49
2018-06-28T23:53:56.961Z,33.36
2018-06-28T23:56:27.934Z,33.52
2018-06-28T23:59:01.805Z,33.09
